createdAt,value
2023-04-25T00:00:27.449Z,24.78
2023-04-25T00:01:27.505Z,24.82
2023-04-25T00:02:27.712Z,24.81
2023-04-25T00:03:27.792Z,24.82
2023-04-25T00:04:27.970Z,24.79
2023-04-25T00:05:27.778Z,24.82
2023-04-25T00:06:27.811Z,24.79
2023-04-25T00:07:27.863Z,24.82
2023-04-25T00:08:27.906Z,24.79
2023-04-25T00:09:27.927Z,24.81
2023-04-25T00:10:27.943Z,24.81
2023-04-25T00:11:27.983Z,24.85
2023-04-25T00:12:28.036Z,24.81
2023-04-25T00:13:28.094Z,24.81
2023-04-25T00:14:28.161Z,24.79
2023-04-25T00:15:28.202Z,24.78
2023-04-25T00:16:28.315Z,24.79
2023-04-25T00:17:28.384Z,24.79
2023-04-25T00:18:28.388Z,24.79
2023-04-25T00:19:28.445Z,24.81
2023-04-25T00:20:28.494Z,24.81
2023-04-25T00:21:28.556Z,24.79
2023-04-25T00:22:28.614Z,24.76
2023-04-25T00:23:28.648Z,24.79
2023-04-25T00:24:28.709Z,24.82
2023-04-25T00:25:28.778Z,24.81
2023-04-25T00:26:28.843Z,24.79
2023-04-25T00:27:28.903Z,24.79
2023-04-25T00:28:28.963Z,24.78
2023-04-25T00:29:29.489Z,24.76
2023-04-25T00:30:29.085Z,24.79
2023-04-25T00:31:29.197Z,24.76
2023-04-25T00:32:29.199Z,24.79
2023-04-25T00:33:29.210Z,24.78
2023-04-25T00:34:29.259Z,24.78
2023-04-25T00:35:29.309Z,24.81
2023-04-25T00:36:29.386Z,24.81
2023-04-25T00:37:29.382Z,24.79
2023-04-25T00:38:29.422Z,24.79
2023-04-25T00:39:29.443Z,24.78
2023-04-25T00:40:29.475Z,24.78
2023-04-25T00:41:29.535Z,24.76
2023-04-25T00:42:29.589Z,24.78
2023-04-25T00:43:29.636Z,24.78
2023-04-25T00:44:29.684Z,24.78
2023-04-25T00:45:29.748Z,24.76
2023-04-25T00:46:29.798Z,24.76
2023-04-25T00:47:29.884Z,24.76
2023-04-25T00:48:29.906Z,24.78
2023-04-25T00:49:29.970Z,24.76
2023-04-25T00:50:30.028Z,24.76
2023-04-25T00:51:30.094Z,24.75
2023-04-25T00:52:30.154Z,24.75
2023-04-25T00:53:30.190Z,24.76
2023-04-25T00:54:30.244Z,24.76
2023-04-25T00:55:30.301Z,24.79
2023-04-25T00:56:30.368Z,24.76
2023-04-25T00:57:30.418Z,24.79
2023-04-25T00:58:30.477Z,24.75
2023-04-25T00:59:30.536Z,24.76
2023-04-25T01:00:30.639Z,24.79
2023-04-25T01:01:30.654Z,24.76
2023-04-25T01:02:30.802Z,24.78
2023-04-25T01:03:30.921Z,24.78
2023-04-25T01:04:30.823Z,24.78
2023-04-25T01:05:30.869Z,24.78
2023-04-25T01:06:30.936Z,24.78
2023-04-25T01:07:30.979Z,24.75
2023-04-25T01:08:31.040Z,24.76
2023-04-25T01:09:31.091Z,24.76
2023-04-25T01:10:31.152Z,24.76
2023-04-25T01:11:31.209Z,24.78
2023-04-25T01:12:31.222Z,24.76
2023-04-25T01:13:31.248Z,24.78
2023-04-25T01:14:31.281Z,24.78
2023-04-25T01:15:31.323Z,24.78
2023-04-25T01:16:31.377Z,24.78
2023-04-25T01:17:31.384Z,24.76
2023-04-25T01:18:31.430Z,24.75
2023-04-25T01:19:31.491Z,24.75
2023-04-25T01:20:31.539Z,24.78
2023-04-25T01:21:31.595Z,24.78
2023-04-25T01:22:31.622Z,24.79
2023-04-25T01:23:31.666Z,24.79
2023-04-25T01:24:31.686Z,24.76
2023-04-25T01:25:31.711Z,24.76
2023-04-25T01:26:31.737Z,24.75
2023-04-25T01:27:31.797Z,24.78
2023-04-25T01:28:31.874Z,24.78
2023-04-25T01:29:31.946Z,24.75
2023-04-25T01:30:31.995Z,24.76
2023-04-25T01:31:32.080Z,24.78
2023-04-25T01:32:32.153Z,24.75
2023-04-25T01:33:32.147Z,24.76
2023-04-25T01:34:32.193Z,24.76
2023-04-25T01:35:32.223Z,24.75
2023-04-25T01:36:32.248Z,24.76
2023-04-25T01:37:32.308Z,24.76
2023-04-25T01:38:32.380Z,24.76
2023-04-25T01:39:32.462Z,24.75
2023-04-25T01:40:32.489Z,24.76
2023-04-25T01:41:32.518Z,24.76
2023-04-25T01:42:32.540Z,24.75
2023-04-25T01:43:32.561Z,24.74
2023-04-25T01:44:32.595Z,24.75
2023-04-25T01:45:32.631Z,24.75
2023-04-25T01:46:32.730Z,24.74
2023-04-25T01:47:33.308Z,24.75
2023-04-25T01:48:32.785Z,24.75
2023-04-25T01:49:32.905Z,24.75
2023-04-25T01:50:32.885Z,24.76
2023-04-25T01:51:32.942Z,24.76
2023-04-25T01:52:33.010Z,24.74
2023-04-25T01:53:33.051Z,24.75
2023-04-25T01:54:33.108Z,24.76
2023-04-25T01:55:33.168Z,24.76
2023-04-25T01:56:33.238Z,24.75
2023-04-25T01:57:33.322Z,24.74
2023-04-25T01:58:33.373Z,24.74
2023-04-25T01:59:33.426Z,24.76
2023-04-25T02:00:33.468Z,24.74
2023-04-25T02:01:33.573Z,24.76
2023-04-25T02:02:33.680Z,24.74
2023-04-25T02:03:33.751Z,24.76
2023-04-25T02:04:33.925Z,24.72
2023-04-25T02:05:33.770Z,24.75
2023-04-25T02:06:33.842Z,24.79
2023-04-25T02:07:33.922Z,24.76
2023-04-25T02:08:33.974Z,24.74
2023-04-25T02:09:34.040Z,24.75
2023-04-25T02:10:34.101Z,24.76
2023-04-25T02:11:34.151Z,24.74
2023-04-25T02:12:34.220Z,24.76
2023-04-25T02:13:34.281Z,24.75
2023-04-25T02:14:34.354Z,24.72
2023-04-25T02:15:34.469Z,24.74
2023-04-25T02:16:34.528Z,24.75
2023-04-25T02:17:34.550Z,24.74
2023-04-25T02:18:34.598Z,24.75
2023-04-25T02:19:34.629Z,24.75
2023-04-25T02:20:34.717Z,24.75
2023-04-25T02:21:34.758Z,24.75
2023-04-25T02:22:34.828Z,24.74
2023-04-25T02:23:34.890Z,24.72
2023-04-25T02:24:34.960Z,24.74
2023-04-25T02:25:35.025Z,24.74
2023-04-25T02:26:35.084Z,24.75
2023-04-25T02:27:35.148Z,24.74
2023-04-25T02:28:35.208Z,24.72
2023-04-25T02:29:35.276Z,24.72
2023-04-25T02:30:35.333Z,24.72
2023-04-25T02:31:35.440Z,24.75
2023-04-25T02:32:35.617Z,24.75
2023-04-25T02:33:35.544Z,24.72
2023-04-25T02:34:35.612Z,24.71
2023-04-25T02:35:35.672Z,24.72
2023-04-25T02:36:35.744Z,24.74
2023-04-25T02:37:35.805Z,24.74
2023-04-25T02:38:35.877Z,24.72
2023-04-25T02:39:35.931Z,24.74
2023-04-25T02:40:36.007Z,24.72
2023-04-25T02:41:36.072Z,24.75
2023-04-25T02:42:36.141Z,24.74
2023-04-25T02:43:36.207Z,24.72
2023-04-25T02:44:36.267Z,24.75
2023-04-25T02:45:36.371Z,24.75
2023-04-25T02:46:39.485Z,24.72
2023-04-25T02:47:36.416Z,24.72
2023-04-25T02:48:36.364Z,24.71
2023-04-25T02:49:36.367Z,24.71
2023-04-25T02:50:36.352Z,24.72
2023-04-25T02:51:36.339Z,24.71
2023-04-25T02:52:36.331Z,24.72
2023-04-25T02:53:36.311Z,24.74
2023-04-25T02:54:36.315Z,24.72
2023-04-25T02:55:36.321Z,24.71
2023-04-25T02:56:36.305Z,24.72
2023-04-25T02:57:36.296Z,24.72
2023-04-25T02:58:36.270Z,24.71
2023-04-25T02:59:36.272Z,24.71
2023-04-25T03:00:36.289Z,24.72
2023-04-25T03:01:36.275Z,24.69
2023-04-25T03:02:36.330Z,24.71
2023-04-25T03:03:36.267Z,24.74
2023-04-25T03:04:36.311Z,24.72
2023-04-25T03:05:36.232Z,24.71
2023-04-25T03:06:36.230Z,24.72
2023-04-25T03:07:36.236Z,24.71
2023-04-25T03:08:36.209Z,24.71
2023-04-25T03:09:36.209Z,24.71
2023-04-25T03:10:36.190Z,24.72
2023-04-25T03:11:36.207Z,24.72
2023-04-25T03:12:36.181Z,24.71
2023-04-25T03:13:36.187Z,24.72
2023-04-25T03:14:36.161Z,24.71
2023-04-25T03:15:36.152Z,24.74
2023-04-25T03:16:36.296Z,24.74
2023-04-25T03:17:36.300Z,24.74
2023-04-25T03:18:36.337Z,24.74
2023-04-25T03:19:36.408Z,24.75
2023-04-25T03:20:36.476Z,24.74
2023-04-25T03:21:36.541Z,24.78
2023-04-25T03:22:36.573Z,24.75
2023-04-25T03:23:36.636Z,24.75
2023-04-25T03:24:36.701Z,24.75
2023-04-25T03:25:36.760Z,24.75
2023-04-25T03:26:36.821Z,24.78
2023-04-25T03:27:36.884Z,24.76
2023-04-25T03:28:36.947Z,24.74
2023-04-25T03:29:37.002Z,24.78
2023-04-25T03:30:37.073Z,24.76
2023-04-25T03:31:37.168Z,24.78
2023-04-25T03:32:37.243Z,24.79
2023-04-25T03:33:37.270Z,24.78
2023-04-25T03:34:37.327Z,24.78
2023-04-25T03:35:37.390Z,24.78
2023-04-25T03:36:38.695Z,24.76
2023-04-25T03:37:37.502Z,24.76
2023-04-25T03:38:37.572Z,24.79
2023-04-25T03:39:37.633Z,24.78
2023-04-25T03:40:37.694Z,24.76
2023-04-25T03:41:37.755Z,24.78
2023-04-25T03:42:37.815Z,24.81
2023-04-25T03:43:38.072Z,24.79
2023-04-25T03:44:37.946Z,24.79
2023-04-25T03:45:38.048Z,24.79
2023-04-25T03:46:38.068Z,24.78
2023-04-25T03:47:38.151Z,24.78
2023-04-25T03:48:38.181Z,24.78
2023-04-25T03:49:38.253Z,24.79
2023-04-25T03:50:38.308Z,24.79
2023-04-25T03:51:38.365Z,24.79
2023-04-25T03:52:38.428Z,24.81
2023-04-25T03:53:38.534Z,24.79
2023-04-25T03:54:38.576Z,24.76
2023-04-25T03:55:38.633Z,24.79
2023-04-25T03:56:38.684Z,24.79
2023-04-25T03:57:38.738Z,24.78
2023-04-25T03:58:38.812Z,24.78
2023-04-25T03:59:38.889Z,24.79
2023-04-25T04:00:38.933Z,24.81
2023-04-25T04:01:38.998Z,24.79
2023-04-25T04:02:39.096Z,24.79
2023-04-25T04:03:39.516Z,24.78
2023-04-25T04:04:39.365Z,24.81
2023-04-25T04:05:39.280Z,24.81
2023-04-25T04:06:39.303Z,24.78
2023-04-25T04:07:39.365Z,24.78
2023-04-25T04:08:39.434Z,24.76
2023-04-25T04:09:39.497Z,24.81
2023-04-25T04:10:39.583Z,24.79
2023-04-25T04:11:39.612Z,24.79
2023-04-25T04:12:39.670Z,24.81
2023-04-25T04:13:39.757Z,24.81
2023-04-25T04:14:39.800Z,24.79
2023-04-25T04:15:39.896Z,24.78
2023-04-25T04:16:39.917Z,24.81
2023-04-25T04:17:40.030Z,24.76
2023-04-25T04:18:40.049Z,24.79
2023-04-25T04:19:40.091Z,24.78
2023-04-25T04:20:40.147Z,24.81
2023-04-25T04:21:40.219Z,24.79
2023-04-25T04:22:40.278Z,24.79
2023-04-25T04:23:40.337Z,24.79
2023-04-25T04:24:40.394Z,24.79
2023-04-25T04:25:40.459Z,24.81
2023-04-25T04:26:40.527Z,24.81
2023-04-25T04:27:40.598Z,24.79
2023-04-25T04:28:40.647Z,24.79
2023-04-25T04:29:40.710Z,24.81
2023-04-25T04:30:40.761Z,24.81
2023-04-25T04:31:40.888Z,24.79
2023-04-25T04:32:40.955Z,24.83
2023-04-25T04:33:40.941Z,24.81
2023-04-25T04:34:41.009Z,24.82
2023-04-25T04:35:41.079Z,24.81
2023-04-25T04:36:41.150Z,24.81
2023-04-25T04:37:41.193Z,24.81
2023-04-25T04:38:41.982Z,24.78
2023-04-25T04:39:41.325Z,24.79
2023-04-25T04:40:41.380Z,24.81
2023-04-25T04:41:41.449Z,24.82
2023-04-25T04:42:41.517Z,24.82
2023-04-25T04:43:41.582Z,24.82
2023-04-25T04:44:41.645Z,24.81
2023-04-25T04:45:41.717Z,24.81
2023-04-25T04:46:41.955Z,24.81
2023-04-25T04:47:41.872Z,24.79
2023-04-25T04:48:41.884Z,24.82
2023-04-25T04:49:41.954Z,24.82
2023-04-25T04:50:42.016Z,24.81
2023-04-25T04:51:42.069Z,24.82
2023-04-25T04:52:42.116Z,24.81
2023-04-25T04:53:42.183Z,24.81
2023-04-25T04:54:42.244Z,24.82
2023-04-25T04:55:42.309Z,24.81
2023-04-25T04:56:42.347Z,24.82
2023-04-25T04:57:42.410Z,24.81
2023-04-25T04:58:42.470Z,24.79
2023-04-25T04:59:42.532Z,24.81
2023-04-25T05:00:42.608Z,24.81
2023-04-25T05:01:42.642Z,24.81
2023-04-25T05:02:42.795Z,24.79
2023-04-25T05:03:42.857Z,24.81
2023-04-25T05:04:42.867Z,24.81
2023-04-25T05:05:42.886Z,24.81
2023-04-25T05:06:42.939Z,24.79
2023-04-25T05:07:43.016Z,24.79
2023-04-25T05:08:43.078Z,24.82
2023-04-25T05:09:43.136Z,24.81
2023-04-25T05:10:43.192Z,24.81
2023-04-25T05:11:43.251Z,24.81
2023-04-25T05:12:43.582Z,24.81
2023-04-25T05:13:43.359Z,24.81
2023-04-25T05:14:43.414Z,24.82
2023-04-25T05:15:43.462Z,24.81
2023-04-25T05:16:43.582Z,24.79
2023-04-25T05:17:43.603Z,24.82
2023-04-25T05:18:43.631Z,24.79
2023-04-25T05:19:43.690Z,24.82
2023-04-25T05:20:43.770Z,24.79
2023-04-25T05:21:43.816Z,24.79
2023-04-25T05:22:43.868Z,24.78
2023-04-25T05:23:43.931Z,24.81
2023-04-25T05:24:43.992Z,24.78
2023-04-25T05:25:44.046Z,24.81
2023-04-25T05:26:44.113Z,24.82
2023-04-25T05:27:44.172Z,24.81
2023-04-25T05:28:44.277Z,24.76
2023-04-25T05:29:44.273Z,24.79
2023-04-25T05:30:44.337Z,24.82
2023-04-25T05:31:44.428Z,24.83
2023-04-25T05:32:44.505Z,24.83
2023-04-25T05:33:45.075Z,24.82
2023-04-25T05:34:44.605Z,24.83
2023-04-25T05:35:44.616Z,24.83
2023-04-25T05:36:44.672Z,24.85
2023-04-25T05:37:44.728Z,24.85
2023-04-25T05:38:44.808Z,24.85
2023-04-25T05:39:44.834Z,24.85
2023-04-25T05:40:44.898Z,24.86
2023-04-25T05:41:44.942Z,24.83
2023-04-25T05:42:44.993Z,24.83
2023-04-25T05:43:45.052Z,24.85
2023-04-25T05:44:45.115Z,24.85
2023-04-25T05:45:45.205Z,24.83
2023-04-25T05:46:45.232Z,24.85
2023-04-25T05:47:45.330Z,24.85
2023-04-25T05:48:45.365Z,24.86
2023-04-25T05:49:45.426Z,24.82
2023-04-25T05:50:45.480Z,24.83
2023-04-25T05:51:45.536Z,24.83
2023-04-25T05:52:45.591Z,24.83
2023-04-25T05:53:45.647Z,24.83
2023-04-25T05:54:45.735Z,24.82
2023-04-25T05:55:45.768Z,24.82
2023-04-25T05:56:45.827Z,24.82
2023-04-25T05:57:45.922Z,24.82
2023-04-25T05:58:45.955Z,24.82
2023-04-25T05:59:46.031Z,24.85
2023-04-25T06:00:46.058Z,24.83
2023-04-25T06:01:46.120Z,24.83
2023-04-25T06:02:46.267Z,24.83
2023-04-25T06:03:46.509Z,24.85
2023-04-25T06:04:46.423Z,24.83
2023-04-25T06:05:46.386Z,24.85
2023-04-25T06:06:46.424Z,24.82
2023-04-25T06:07:46.481Z,24.83
2023-04-25T06:08:46.537Z,24.85
2023-04-25T06:09:46.596Z,24.83
2023-04-25T06:10:46.689Z,24.82
2023-04-25T06:11:46.725Z,24.83
2023-04-25T06:12:46.766Z,24.81
2023-04-25T06:13:46.826Z,24.83
2023-04-25T06:14:46.876Z,24.83
2023-04-25T06:15:46.951Z,24.83
2023-04-25T06:16:47.002Z,24.82
2023-04-25T06:17:47.100Z,24.83
2023-04-25T06:18:47.126Z,24.85
2023-04-25T06:19:47.172Z,24.85
2023-04-25T06:20:47.212Z,24.82
2023-04-25T06:21:47.279Z,24.83
2023-04-25T06:22:47.340Z,24.85
2023-04-25T06:23:47.394Z,24.85
2023-04-25T06:24:47.448Z,24.86
2023-04-25T06:25:47.513Z,24.85
2023-04-25T06:26:47.573Z,24.83
2023-04-25T06:27:47.644Z,24.85
2023-04-25T06:28:47.729Z,24.86
2023-04-25T06:29:47.742Z,24.89
2023-04-25T06:30:47.755Z,24.69
2023-04-25T06:31:47.826Z,24.34
2023-04-25T06:32:47.873Z,23.98
2023-04-25T06:33:48.049Z,23.57
2023-04-25T06:34:47.955Z,23.26
2023-04-25T06:35:47.983Z,22.99
2023-04-25T06:36:48.016Z,22.89
2023-04-25T06:37:48.030Z,22.88
2023-04-25T06:38:48.184Z,22.95
2023-04-25T06:39:48.153Z,23.03
2023-04-25T06:40:48.217Z,23.15
2023-04-25T06:41:48.283Z,23.24
2023-04-25T06:42:48.338Z,23.37
2023-04-25T06:43:48.362Z,23.47
2023-04-25T06:44:48.389Z,23.61
2023-04-25T06:45:48.804Z,23.71
2023-04-25T06:46:48.465Z,23.82
2023-04-25T06:47:48.485Z,23.92
2023-04-25T06:48:48.658Z,24.00
2023-04-25T06:49:48.421Z,24.10
2023-04-25T06:50:48.408Z,24.17
2023-04-25T06:51:48.428Z,24.26
2023-04-25T06:52:48.504Z,24.33
2023-04-25T06:53:48.495Z,24.40
2023-04-25T06:54:48.484Z,24.47
2023-04-25T06:55:48.478Z,24.50
2023-04-25T06:56:48.459Z,24.54
2023-04-25T06:57:48.441Z,24.55
2023-04-25T06:58:48.606Z,24.57
2023-04-25T06:59:48.423Z,24.60
2023-04-25T07:00:48.475Z,24.60
2023-04-25T07:01:48.429Z,24.65
2023-04-25T07:02:48.497Z,24.68
2023-04-25T07:03:48.719Z,24.74
2023-04-25T07:04:48.632Z,24.75
2023-04-25T07:05:48.582Z,24.78
2023-04-25T07:06:48.645Z,24.81
2023-04-25T07:07:48.693Z,24.83
2023-04-25T07:08:49.082Z,24.83
2023-04-25T07:09:48.796Z,24.83
2023-04-25T07:10:50.149Z,24.89
2023-04-25T07:11:48.874Z,24.86
2023-04-25T07:12:48.925Z,24.89
2023-04-25T07:13:48.951Z,24.93
2023-04-25T07:14:48.992Z,24.93
2023-04-25T07:15:49.028Z,24.96
2023-04-25T07:16:49.117Z,24.96
2023-04-25T07:17:49.155Z,24.96
2023-04-25T07:18:49.274Z,25.00
2023-04-25T07:19:49.165Z,25.00
2023-04-25T07:20:49.210Z,25.00
2023-04-25T07:21:49.256Z,25.05
2023-04-25T07:22:49.293Z,25.07
2023-04-25T07:23:49.335Z,25.07
2023-04-25T07:24:49.373Z,25.10
2023-04-25T07:25:49.402Z,25.13
2023-04-25T07:26:49.439Z,25.10
2023-04-25T07:27:49.481Z,25.17
2023-04-25T07:28:49.622Z,25.16
2023-04-25T07:29:49.557Z,25.16
2023-04-25T07:30:49.609Z,25.16
2023-04-25T07:31:49.674Z,25.14
2023-04-25T07:32:49.719Z,25.14
2023-04-25T07:33:49.715Z,25.16
2023-04-25T07:34:49.772Z,25.14
2023-04-25T07:35:49.819Z,25.11
2023-04-25T07:36:49.850Z,25.13
2023-04-25T07:37:49.882Z,25.13
2023-04-25T07:38:50.262Z,25.11
2023-04-25T07:39:49.966Z,25.10
2023-04-25T07:40:50.029Z,25.11
2023-04-25T07:41:50.055Z,25.10
2023-04-25T07:42:50.099Z,25.13
2023-04-25T07:43:50.266Z,25.09
2023-04-25T07:44:50.205Z,25.07
2023-04-25T07:45:50.253Z,25.10
2023-04-25T07:46:50.273Z,25.11
2023-04-25T07:47:50.396Z,25.09
2023-04-25T07:48:50.531Z,25.07
2023-04-25T07:49:50.414Z,25.06
2023-04-25T07:50:50.453Z,25.07
2023-04-25T07:51:50.496Z,25.05
2023-04-25T07:52:50.546Z,25.07
2023-04-25T07:53:50.871Z,25.07
2023-04-25T07:54:50.639Z,25.09
2023-04-25T07:55:50.697Z,25.07
2023-04-25T07:56:53.461Z,25.03
2023-04-25T07:57:50.723Z,25.07
2023-04-25T07:58:50.958Z,25.10
2023-04-25T07:59:50.674Z,25.09
2023-04-25T08:00:50.699Z,25.07
2023-04-25T08:01:50.636Z,25.10
2023-04-25T08:02:50.668Z,25.09
2023-04-25T08:03:51.387Z,25.09
2023-04-25T08:04:50.958Z,25.07
2023-04-25T08:05:50.762Z,25.09
2023-04-25T08:06:50.547Z,25.07
2023-04-25T08:07:50.536Z,25.07
2023-04-25T08:08:50.710Z,25.07
2023-04-25T08:09:50.503Z,25.05
2023-04-25T08:10:50.483Z,25.06
2023-04-25T08:11:50.453Z,25.07
2023-04-25T08:12:50.445Z,25.06
2023-04-25T08:13:50.437Z,24.99
2023-04-25T08:14:50.419Z,24.95
2023-04-25T08:15:50.446Z,24.90
2023-04-25T08:16:50.414Z,24.86
2023-04-25T08:17:50.464Z,24.75
2023-04-25T08:18:50.617Z,24.68
2023-04-25T08:19:50.394Z,24.62
2023-04-25T08:20:50.383Z,24.54
2023-04-25T08:21:50.377Z,24.52
2023-04-25T08:22:50.361Z,24.51
2023-04-25T08:23:50.359Z,24.51
2023-04-25T08:24:50.351Z,24.57
2023-04-25T08:25:50.334Z,24.60
2023-04-25T08:26:50.323Z,24.67
2023-04-25T08:27:50.296Z,24.68
2023-04-25T08:28:50.566Z,24.76
2023-04-25T08:29:50.271Z,24.86
2023-04-25T08:30:50.256Z,24.93
2023-04-25T08:31:50.287Z,25.02
2023-04-25T08:32:50.279Z,25.10
2023-04-25T08:33:50.208Z,25.20
2023-04-25T08:34:50.206Z,25.30
2023-04-25T08:35:50.206Z,25.41
2023-04-25T08:36:50.235Z,25.46
2023-04-25T08:37:50.253Z,25.52
2023-04-25T08:38:50.658Z,25.60
2023-04-25T08:39:50.305Z,25.64
2023-04-25T08:40:50.354Z,25.69
2023-04-25T08:41:50.348Z,25.76
2023-04-25T08:42:50.331Z,25.79
2023-04-25T08:43:51.096Z,25.88
2023-04-25T08:44:50.275Z,25.89
2023-04-25T08:45:50.270Z,25.90
2023-04-25T08:46:50.814Z,25.93
2023-04-25T08:47:50.310Z,25.96
2023-04-25T08:48:50.423Z,26.00
2023-04-25T08:49:50.175Z,26.04
2023-04-25T08:50:50.151Z,26.07
2023-04-25T08:51:50.179Z,26.08
2023-04-25T08:52:50.111Z,26.14
2023-04-25T08:53:53.702Z,26.16
2023-04-25T08:54:51.062Z,26.13
2023-04-25T08:55:50.036Z,26.10
2023-04-25T08:56:50.013Z,26.12
2023-04-25T08:57:49.990Z,26.13
2023-04-25T08:58:50.039Z,26.13
2023-04-25T08:59:49.938Z,26.19
2023-04-25T09:00:49.939Z,26.17
2023-04-25T09:01:49.926Z,26.17
2023-04-25T09:02:49.973Z,26.17
2023-04-25T09:03:49.906Z,26.14
2023-04-25T09:04:49.804Z,26.14
2023-04-25T09:05:49.772Z,26.13
2023-04-25T09:06:49.745Z,26.12
2023-04-25T09:07:50.679Z,26.12
2023-04-25T09:08:49.694Z,26.12
2023-04-25T09:09:49.684Z,26.12
2023-04-25T09:10:49.656Z,26.13
2023-04-25T09:11:49.636Z,26.17
2023-04-25T09:12:49.610Z,26.16
2023-04-25T09:13:49.754Z,26.16
2023-04-25T09:14:49.567Z,26.17
2023-04-25T09:15:49.553Z,26.17
2023-04-25T09:16:49.550Z,26.21
2023-04-25T09:17:49.504Z,26.24
2023-04-25T09:18:49.447Z,26.24
2023-04-25T09:19:49.405Z,26.24
2023-04-25T09:21:00.143Z,26.30
2023-04-25T09:21:50.370Z,26.31
2023-04-25T09:22:49.354Z,26.34
2023-04-25T09:23:49.711Z,26.35
2023-04-25T09:24:49.279Z,26.32
2023-04-25T09:25:49.263Z,26.35
2023-04-25T09:26:49.249Z,26.38
2023-04-25T09:27:49.223Z,26.38
2023-04-25T09:28:49.250Z,26.38
2023-04-25T09:29:49.196Z,26.39
2023-04-25T09:30:49.177Z,26.38
2023-04-25T09:31:49.169Z,26.35
2023-04-25T09:32:49.128Z,26.37
2023-04-25T09:33:49.497Z,26.37
2023-04-25T09:34:49.089Z,26.38
2023-04-25T09:35:49.056Z,26.34
2023-04-25T09:36:49.037Z,26.37
2023-04-25T09:37:49.012Z,26.38
2023-04-25T09:38:48.997Z,26.35
2023-04-25T09:39:48.988Z,26.37
2023-04-25T09:40:48.959Z,26.35
2023-04-25T09:41:48.963Z,26.37
2023-04-25T09:42:48.947Z,26.32
2023-04-25T09:43:48.955Z,26.31
2023-04-25T09:44:48.952Z,26.31
2023-04-25T09:45:49.024Z,26.28
2023-04-25T09:46:49.074Z,26.27
2023-04-25T09:47:48.987Z,26.27
2023-04-25T09:48:48.965Z,26.26
2023-04-25T09:49:48.983Z,26.27
2023-04-25T09:50:48.973Z,26.24
2023-04-25T09:51:48.980Z,26.24
2023-04-25T09:52:48.983Z,26.23
2023-04-25T09:53:49.126Z,26.21
2023-04-25T09:54:49.050Z,26.21
2023-04-25T09:55:49.003Z,26.21
2023-04-25T09:56:49.017Z,26.20
2023-04-25T09:57:49.016Z,26.17
2023-04-25T09:58:49.024Z,26.20
2023-04-25T09:59:49.044Z,26.17
2023-04-25T10:00:49.045Z,26.16
2023-04-25T10:01:49.075Z,26.14
2023-04-25T10:02:49.260Z,26.13
2023-04-25T10:03:49.182Z,26.12
2023-04-25T10:04:49.137Z,26.08
2023-04-25T10:05:49.061Z,26.10
2023-04-25T10:06:49.082Z,26.08
2023-04-25T10:07:49.087Z,26.08
2023-04-25T10:08:49.100Z,26.06
2023-04-25T10:09:49.132Z,26.04
2023-04-25T10:10:49.117Z,26.03
2023-04-25T10:11:49.150Z,26.04
2023-04-25T10:12:49.147Z,26.01
2023-04-25T10:13:49.358Z,26.00
2023-04-25T10:14:49.192Z,25.99
2023-04-25T10:15:49.200Z,25.99
2023-04-25T10:16:49.219Z,25.99
2023-04-25T10:17:49.274Z,25.97
2023-04-25T10:18:49.280Z,25.95
2023-04-25T10:19:49.258Z,25.82
2023-04-25T10:20:49.299Z,25.65
2023-04-25T10:21:49.360Z,25.48
2023-04-25T10:22:49.421Z,25.34
2023-04-25T10:23:49.653Z,25.19
2023-04-25T10:24:49.564Z,25.09
2023-04-25T10:25:49.641Z,25.09
2023-04-25T10:26:49.697Z,25.07
2023-04-25T10:27:49.761Z,25.11
2023-04-25T10:28:49.818Z,25.07
2023-04-25T10:29:49.883Z,25.13
2023-04-25T10:30:50.048Z,25.16
2023-04-25T10:31:50.072Z,25.17
2023-04-25T10:32:50.003Z,25.21
2023-04-25T10:33:50.187Z,25.23
2023-04-25T10:34:50.088Z,25.26
2023-04-25T10:35:50.117Z,25.28
2023-04-25T10:36:50.151Z,25.30
2023-04-25T10:37:50.202Z,25.33
2023-04-25T10:38:50.219Z,25.34
2023-04-25T10:39:50.252Z,25.37
2023-04-25T10:40:50.271Z,25.37
2023-04-25T10:41:50.311Z,25.40
2023-04-25T10:42:50.328Z,25.44
2023-04-25T10:43:50.807Z,25.41
2023-04-25T10:44:50.404Z,25.42
2023-04-25T10:45:50.424Z,25.42
2023-04-25T10:46:50.502Z,25.45
2023-04-25T10:47:50.551Z,25.46
2023-04-25T10:48:50.522Z,25.44
2023-04-25T10:49:50.544Z,25.48
2023-04-25T10:50:50.629Z,25.49
2023-04-25T10:51:55.690Z,25.51
2023-04-25T10:52:51.595Z,25.49
2023-04-25T10:53:50.737Z,25.48
2023-04-25T10:54:50.566Z,25.52
2023-04-25T10:55:50.576Z,25.52
2023-04-25T10:56:50.532Z,25.52
2023-04-25T10:57:50.524Z,25.54
2023-04-25T10:58:52.093Z,25.54
2023-04-25T10:59:50.694Z,25.54
2023-04-25T11:00:57.628Z,25.52
2023-04-25T11:01:51.755Z,25.55
2023-04-25T11:02:50.814Z,25.54
2023-04-25T11:03:50.819Z,25.57
2023-04-25T11:04:50.759Z,25.55
2023-04-25T11:05:57.872Z,25.57
2023-04-25T11:06:53.797Z,25.57
2023-04-25T11:07:59.965Z,25.55
2023-04-25T11:08:51.814Z,25.57
2023-04-25T11:09:50.555Z,25.57
2023-04-25T11:10:52.143Z,25.57
2023-04-25T11:11:50.537Z,25.58
2023-04-25T11:12:50.559Z,25.57
2023-04-25T11:13:50.500Z,25.58
2023-04-25T11:14:50.503Z,25.57
2023-04-25T11:15:55.117Z,25.57
2023-04-25T11:16:51.503Z,25.57
2023-04-25T11:17:50.596Z,25.55
2023-04-25T11:18:50.661Z,25.57
2023-04-25T11:19:50.464Z,25.58
2023-04-25T11:20:50.449Z,25.60
2023-04-25T11:21:50.457Z,25.57
2023-04-25T11:22:52.703Z,25.55
2023-04-25T11:23:50.747Z,25.55
2023-04-25T11:24:50.445Z,25.57
2023-04-25T11:25:50.478Z,25.57
2023-04-25T11:26:50.533Z,25.57
2023-04-25T11:27:50.545Z,25.55
2023-04-25T11:28:50.577Z,25.60
2023-04-25T11:29:50.608Z,25.57
2023-04-25T11:30:50.631Z,25.54
2023-04-25T11:31:50.666Z,25.57
2023-04-25T11:32:50.690Z,25.55
2023-04-25T11:33:51.013Z,25.54
2023-04-25T11:34:50.722Z,25.57
2023-04-25T11:35:50.737Z,25.55
2023-04-25T11:36:50.746Z,25.54
2023-04-25T11:37:50.764Z,25.54
2023-04-25T11:38:50.814Z,25.54
2023-04-25T11:39:50.845Z,25.55
2023-04-25T11:40:50.854Z,25.57
2023-04-25T11:41:50.868Z,25.55
2023-04-25T11:42:51.114Z,25.57
2023-04-25T11:43:50.940Z,25.55
2023-04-25T11:44:50.877Z,25.52
2023-04-25T11:45:50.871Z,25.57
2023-04-25T11:46:50.865Z,25.55
2023-04-25T11:47:50.843Z,25.54
2023-04-25T11:48:51.016Z,25.54
2023-04-25T11:49:50.794Z,25.55
2023-04-25T11:50:50.784Z,25.55
2023-04-25T11:51:50.752Z,25.52
2023-04-25T11:52:50.750Z,25.54
2023-04-25T11:53:50.759Z,25.52
2023-04-25T11:54:50.715Z,25.54
2023-04-25T11:55:51.790Z,25.54
2023-04-25T11:56:50.680Z,25.52
2023-04-25T11:57:50.664Z,25.52
2023-04-25T11:58:50.670Z,25.51
2023-04-25T11:59:50.639Z,25.52
2023-04-25T12:00:50.900Z,25.54
2023-04-25T12:01:50.669Z,25.52
2023-04-25T12:02:50.672Z,25.51
2023-04-25T12:03:50.799Z,25.52
2023-04-25T12:04:50.920Z,25.51
2023-04-25T12:05:50.652Z,25.51
2023-04-25T12:06:50.658Z,25.51
2023-04-25T12:07:50.500Z,25.51
2023-04-25T12:08:50.701Z,25.49
2023-04-25T12:09:50.467Z,25.51
2023-04-25T12:10:50.494Z,25.51
2023-04-25T12:11:50.529Z,25.49
2023-04-25T12:12:50.561Z,25.49
2023-04-25T12:13:50.588Z,25.49
2023-04-25T12:14:50.609Z,25.48
2023-04-25T12:15:50.680Z,25.49
2023-04-25T12:16:50.658Z,25.49
2023-04-25T12:17:50.736Z,25.49
2023-04-25T12:18:50.814Z,25.48
2023-04-25T12:19:50.735Z,25.51
2023-04-25T12:20:50.763Z,25.49
2023-04-25T12:21:58.131Z,25.46
2023-04-25T12:22:51.763Z,25.46
2023-04-25T12:23:50.749Z,25.46
2023-04-25T12:24:50.747Z,25.48
2023-04-25T12:25:50.723Z,25.46
2023-04-25T12:26:50.717Z,25.45
2023-04-25T12:27:50.777Z,25.46
2023-04-25T12:28:50.887Z,25.46
2023-04-25T12:29:50.685Z,25.46
2023-04-25T12:30:50.685Z,25.46
2023-04-25T12:31:50.779Z,25.46
2023-04-25T12:32:50.679Z,25.48
2023-04-25T12:33:50.617Z,25.45
2023-04-25T12:34:50.604Z,25.46
2023-04-25T12:35:50.588Z,25.45
2023-04-25T12:36:50.625Z,25.45
2023-04-25T12:37:50.650Z,25.45
2023-04-25T12:38:51.009Z,25.42
2023-04-25T12:39:50.720Z,25.45
2023-04-25T12:40:50.752Z,25.41
2023-04-25T12:41:50.757Z,25.44
2023-04-25T12:42:50.795Z,25.45
2023-04-25T12:43:50.803Z,25.45
2023-04-25T12:44:50.834Z,25.44
2023-04-25T12:45:50.855Z,25.44
2023-04-25T12:46:50.985Z,25.44
2023-04-25T12:47:50.977Z,25.44
2023-04-25T12:48:51.168Z,25.45
2023-04-25T12:49:50.954Z,25.44
2023-04-25T12:50:51.248Z,25.42
2023-04-25T12:51:51.021Z,25.44
2023-04-25T12:52:51.038Z,25.42